createdAt,value
2022-12-20T00:01:52.158Z,3.20
2022-12-20T00:04:38.065Z,3.38
2022-12-20T00:07:23.522Z,4.00
2022-12-20T00:10:09.273Z,4.90
2022-12-20T00:12:55.223Z,3.17
2022-12-20T00:15:41.138Z,3.65
2022-12-20T00:18:26.595Z,3.80
2022-12-20T00:21:14.364Z,3.05
2022-12-20T00:24:00.328Z,3.22
2022-12-20T00:26:46.165Z,3.20
2022-12-20T00:29:31.549Z,3.53
2022-12-20T00:32:17.087Z,4.57
2022-12-20T00:35:02.461Z,3.17
2022-12-20T00:37:47.941Z,3.92
2022-12-20T00:40:33.363Z,3.43
2022-12-20T00:43:18.864Z,3.83
2022-12-20T00:46:05.235Z,3.85
2022-12-20T00:48:52.439Z,3.25
2022-12-20T00:51:37.950Z,3.30
2022-12-20T00:54:23.444Z,4.53
2022-12-20T00:57:08.875Z,4.95
2022-12-20T00:59:54.341Z,4.03
2022-12-20T01:02:39.819Z,3.88
2022-12-20T01:05:25.776Z,3.70
2022-12-20T01:08:11.330Z,2.80
2022-12-20T01:11:04.581Z,3.73
2022-12-20T01:13:52.949Z,3.05
2022-12-20T01:16:44.992Z,3.00
2022-12-20T01:19:33.330Z,4.05
2022-12-20T01:22:19.278Z,3.45
2022-12-20T01:25:06.453Z,2.70
2022-12-20T01:27:52.061Z,2.83
2022-12-20T01:30:41.444Z,3.13
2022-12-20T01:33:27.495Z,2.55
2022-12-20T01:36:17.913Z,3.43
2022-12-20T01:39:08.681Z,3.03
2022-12-20T01:41:55.076Z,3.38
2022-12-20T01:44:44.132Z,3.20
2022-12-20T01:47:34.676Z,3.10
2022-12-20T01:50:20.238Z,2.80
2022-12-20T01:53:06.118Z,3.03
2022-12-20T01:55:52.513Z,2.55
2022-12-20T01:58:39.489Z,3.47
2022-12-20T02:01:25.803Z,3.15
2022-12-20T02:04:13.589Z,2.65
2022-12-20T02:07:00.448Z,3.05
2022-12-20T02:09:46.667Z,2.75
2022-12-20T02:12:41.259Z,2.70
2022-12-20T02:15:56.185Z,3.25
2022-12-20T02:18:53.087Z,2.35
2022-12-20T02:21:57.444Z,2.42
2022-12-20T02:24:49.136Z,2.88
2022-12-20T02:28:02.048Z,2.55
2022-12-20T02:30:52.581Z,2.30
2022-12-20T02:33:42.802Z,2.90
2022-12-20T02:36:28.261Z,2.23
2022-12-20T02:39:17.200Z,4.78
2022-12-20T02:42:20.675Z,3.55
2022-12-20T02:45:18.120Z,2.80
2022-12-20T02:48:10.821Z,2.40
2022-12-20T02:50:59.158Z,1.80
2022-12-20T02:53:45.014Z,2.25
2022-12-20T02:56:43.041Z,4.05
2022-12-20T02:59:34.479Z,2.00
2022-12-20T03:02:23.302Z,2.03
2022-12-20T03:05:09.161Z,3.22
2022-12-20T03:07:55.570Z,3.38
2022-12-20T03:10:44.405Z,2.85
2022-12-20T03:13:30.652Z,2.58
2022-12-20T03:16:23.159Z,2.83
2022-12-20T03:19:08.618Z,2.65
2022-12-20T03:21:54.338Z,2.05
2022-12-20T03:24:39.954Z,2.85
2022-12-20T03:27:31.081Z,3.03
2022-12-20T03:30:17.661Z,3.78
2022-12-20T03:33:03.561Z,1.90
2022-12-20T03:35:49.832Z,3.17
2022-12-20T03:38:37.345Z,2.63
2022-12-20T03:41:25.869Z,2.33
2022-12-20T03:44:12.229Z,2.20
2022-12-20T03:46:58.087Z,2.72
2022-12-20T03:49:43.734Z,2.80
2022-12-20T03:52:30.298Z,2.13
2022-12-20T03:55:15.818Z,2.13
2022-12-20T03:58:03.976Z,2.10
2022-12-20T04:00:52.354Z,2.00
2022-12-20T04:03:55.467Z,2.03
2022-12-20T04:06:40.984Z,3.40
2022-12-20T04:09:27.363Z,2.15
2022-12-20T04:12:19.247Z,2.22
2022-12-20T04:15:05.148Z,2.30
2022-12-20T04:17:51.544Z,2.25
2022-12-20T04:20:38.241Z,2.40
2022-12-20T04:23:38.036Z,3.10
2022-12-20T04:26:24.339Z,1.90
2022-12-20T04:29:10.206Z,2.05
2022-12-20T04:31:57.670Z,2.63
2022-12-20T04:34:43.568Z,2.03
2022-12-20T04:37:30.624Z,1.85
2022-12-20T04:40:16.585Z,4.00
2022-12-20T04:43:06.427Z,2.40
2022-12-20T04:45:56.262Z,4.13
2022-12-20T04:48:57.100Z,3.28
2022-12-20T04:51:44.676Z,2.67
2022-12-20T04:54:32.655Z,3.50
2022-12-20T04:57:30.611Z,2.35
2022-12-20T05:00:17.385Z,3.00
2022-12-20T05:03:08.903Z,2.93
2022-12-20T05:05:55.106Z,2.72
2022-12-20T05:08:42.126Z,2.47
2022-12-20T05:11:27.764Z,3.45
2022-12-20T05:14:13.275Z,2.60
2022-12-20T05:16:58.813Z,2.42
2022-12-20T05:19:46.400Z,3.50
2022-12-20T05:22:52.563Z,3.50
2022-12-20T05:26:15.108Z,2.42
2022-12-20T05:29:01.177Z,3.23
2022-12-20T05:31:47.573Z,2.70
2022-12-20T05:34:34.628Z,3.50
2022-12-20T05:37:20.094Z,3.22
2022-12-20T05:40:06.458Z,2.80
2022-12-20T05:42:52.422Z,3.05
2022-12-20T05:45:39.484Z,2.80
2022-12-20T05:48:32.159Z,3.20
2022-12-20T05:51:18.297Z,1.92
2022-12-20T05:54:19.673Z,3.22
2022-12-20T05:57:16.207Z,2.78
2022-12-20T06:00:02.707Z,2.40
2022-12-20T06:02:50.842Z,2.88
2022-12-20T06:05:38.047Z,1.60
2022-12-20T06:08:24.740Z,3.05
2022-12-20T06:11:11.727Z,3.83
2022-12-20T06:14:07.752Z,1.80
2022-12-20T06:16:55.721Z,1.67
2022-12-20T06:19:42.044Z,1.60
2022-12-20T06:22:29.728Z,2.70
2022-12-20T06:25:16.443Z,2.20
2022-12-20T06:28:02.156Z,1.90
2022-12-20T06:30:56.005Z,1.90
2022-12-20T06:34:07.931Z,1.60
2022-12-20T06:36:57.661Z,2.58
2022-12-20T06:39:46.785Z,2.58
2022-12-20T06:42:33.287Z,1.83
2022-12-20T06:45:18.852Z,1.58
2022-12-20T06:48:05.223Z,2.28
2022-12-20T06:50:56.042Z,3.88
2022-12-20T06:53:43.334Z,2.27
2022-12-20T06:56:29.181Z,1.80
2022-12-20T06:59:15.394Z,2.08
2022-12-20T07:02:01.184Z,1.85
2022-12-20T07:04:47.984Z,2.63
2022-12-20T07:07:38.577Z,2.00
2022-12-20T07:10:30.332Z,3.08
2022-12-20T07:13:17.885Z,3.10
2022-12-20T07:16:05.044Z,3.42
2022-12-20T07:18:55.672Z,3.45
2022-12-20T07:21:41.638Z,1.60
2022-12-20T07:24:27.009Z,3.00
2022-12-20T07:27:12.498Z,1.88
2022-12-20T07:29:58.703Z,4.25
2022-12-20T07:32:44.141Z,2.95
2022-12-20T07:35:29.516Z,4.30
2022-12-20T07:38:19.296Z,2.10
2022-12-20T07:41:15.725Z,1.63
2022-12-20T07:44:05.702Z,2.20
2022-12-20T07:46:56.238Z,2.47
2022-12-20T07:49:48.879Z,3.08
2022-12-20T07:52:42.064Z,2.55
2022-12-20T07:55:34.673Z,2.00
2022-12-20T07:58:26.413Z,2.78
2022-12-20T08:01:18.788Z,2.70
2022-12-20T08:04:24.008Z,3.60
2022-12-20T08:07:18.717Z,2.97
2022-12-20T08:10:15.234Z,2.22
2022-12-20T08:13:03.662Z,2.25
2022-12-20T08:15:52.909Z,3.63
2022-12-20T08:18:42.416Z,1.63
2022-12-20T08:21:34.654Z,3.50
2022-12-20T08:24:24.682Z,2.22
2022-12-20T08:27:19.010Z,2.20
2022-12-20T08:30:12.006Z,3.00
2022-12-20T08:33:01.761Z,2.00
2022-12-20T08:36:00.768Z,2.03
2022-12-20T08:38:53.988Z,6.88
2022-12-20T08:41:45.460Z,3.35
2022-12-20T08:44:42.486Z,1.95
2022-12-20T08:47:36.024Z,2.05
2022-12-20T08:50:32.089Z,2.25
2022-12-20T08:53:26.523Z,2.80
2022-12-20T08:56:23.790Z,1.98
2022-12-20T08:59:19.211Z,2.10
2022-12-20T09:02:23.617Z,2.60
2022-12-20T09:05:18.033Z,2.25
2022-12-20T09:08:14.670Z,2.40
2022-12-20T09:11:26.933Z,4.00
2022-12-20T09:14:21.304Z,4.45
2022-12-20T09:17:15.399Z,3.55
2022-12-20T09:20:08.572Z,4.45
2022-12-20T09:23:03.833Z,2.72
2022-12-20T09:25:57.662Z,3.30
2022-12-20T09:28:55.155Z,5.93
2022-12-20T09:31:50.091Z,6.85
2022-12-20T09:34:41.945Z,4.70
2022-12-20T09:37:35.064Z,5.35
2022-12-20T09:40:36.393Z,4.17
2022-12-20T09:43:32.824Z,2.67
2022-12-20T09:46:30.284Z,2.50
2022-12-20T09:49:32.158Z,4.25
2022-12-20T09:52:39.057Z,2.70
2022-12-20T09:55:48.202Z,2.50
2022-12-20T09:58:56.388Z,2.93
2022-12-20T10:01:52.810Z,2.55
2022-12-20T10:04:46.549Z,3.60
2022-12-20T10:08:07.335Z,2.58
2022-12-20T10:11:11.651Z,3.17
2022-12-20T10:14:19.476Z,3.20
2022-12-20T10:17:38.636Z,5.03
2022-12-20T10:20:45.332Z,3.35
2022-12-20T10:24:08.929Z,3.90
2022-12-20T10:27:18.277Z,5.57
2022-12-20T10:30:18.195Z,2.72
2022-12-20T10:33:16.121Z,12.00
2022-12-20T10:36:32.128Z,7.03
2022-12-20T10:39:53.265Z,4.43
2022-12-20T10:42:50.666Z,8.15
2022-12-20T10:45:48.469Z,3.40
2022-12-20T10:48:47.969Z,5.35
2022-12-20T10:51:57.211Z,3.50
2022-12-20T10:54:52.425Z,2.60
2022-12-20T10:57:50.618Z,3.47
2022-12-20T11:00:45.113Z,2.75
2022-12-20T11:03:54.833Z,5.25
2022-12-20T11:06:48.484Z,3.05
2022-12-20T11:09:45.925Z,2.75
2022-12-20T11:12:39.185Z,4.07
2022-12-20T11:15:44.849Z,3.05
2022-12-20T11:18:55.090Z,3.85
2022-12-20T11:22:11.657Z,3.65
2022-12-20T11:25:11.068Z,3.73
2022-12-20T11:28:27.380Z,4.03
2022-12-20T11:31:44.774Z,3.95
2022-12-20T11:35:00.816Z,4.23
2022-12-20T11:38:16.218Z,3.25
2022-12-20T11:41:23.492Z,2.20
2022-12-20T11:44:32.942Z,2.80
2022-12-20T11:47:45.400Z,4.03
2022-12-20T11:50:57.218Z,3.67
2022-12-20T11:54:09.619Z,4.82
2022-12-20T11:57:15.312Z,7.15
2022-12-20T12:00:18.903Z,3.53
2022-12-20T12:03:24.541Z,6.18
2022-12-20T12:06:27.882Z,4.47
2022-12-20T12:09:50.876Z,6.40
2022-12-20T12:12:44.560Z,6.03
2022-12-20T12:16:06.150Z,4.90
2022-12-20T12:19:05.005Z,6.80
2022-12-20T12:22:10.544Z,4.30
2022-12-20T12:25:12.986Z,5.20
2022-12-20T12:28:11.778Z,6.20
2022-12-20T12:31:14.746Z,3.35
2022-12-20T12:34:42.646Z,3.42
2022-12-20T12:38:24.029Z,5.00
2022-12-20T12:41:41.310Z,5.57
2022-12-20T12:44:57.414Z,5.33
2022-12-20T12:47:57.170Z,6.05
2022-12-20T12:50:57.429Z,4.82
2022-12-20T12:54:08.507Z,4.88
2022-12-20T12:57:25.701Z,3.27
2022-12-20T13:00:59.214Z,3.78
2022-12-20T13:04:00.868Z,4.33
2022-12-20T13:06:56.142Z,3.83
2022-12-20T13:09:51.155Z,2.20
2022-12-20T13:12:46.376Z,3.47
2022-12-20T13:15:52.189Z,4.53
2022-12-20T13:19:00.540Z,2.75
2022-12-20T13:21:58.172Z,3.13
2022-12-20T13:24:48.584Z,6.63
2022-12-20T13:27:42.084Z,1.60
2022-12-20T13:30:28.440Z,3.60
2022-12-20T13:33:23.855Z,3.83
2022-12-20T13:36:09.632Z,3.40
2022-12-20T13:38:56.910Z,3.33
2022-12-20T13:41:49.163Z,3.17
2022-12-20T13:44:54.596Z,3.45
2022-12-20T13:47:51.211Z,3.17
2022-12-20T13:50:40.647Z,3.47
2022-12-20T13:53:27.952Z,4.35
2022-12-20T13:56:28.841Z,2.92
2022-12-20T13:59:26.977Z,2.50
2022-12-20T14:02:26.734Z,3.08
2022-12-20T14:05:36.766Z,4.40
2022-12-20T14:08:26.885Z,4.17
2022-12-20T14:11:32.163Z,4.20
2022-12-20T14:14:17.795Z,9.80
2022-12-20T14:17:39.856Z,10.27
2022-12-20T14:20:33.728Z,10.20
2022-12-20T14:23:36.476Z,8.50
2022-12-20T14:26:30.662Z,8.52
2022-12-20T14:29:19.780Z,9.23
2022-12-20T14:32:06.339Z,6.03
2022-12-20T14:34:53.888Z,6.10
2022-12-20T14:37:41.282Z,4.37
2022-12-20T14:40:27.553Z,5.10
2022-12-20T14:43:25.088Z,6.22
2022-12-20T14:46:20.364Z,4.22
2022-12-20T14:49:16.120Z,9.43
2022-12-20T14:52:20.741Z,10.37
2022-12-20T14:55:14.895Z,7.30
2022-12-20T14:58:05.907Z,7.10
2022-12-20T15:01:03.870Z,8.80
2022-12-20T15:03:57.415Z,7.80
2022-12-20T15:06:48.109Z,7.25
2022-12-20T15:09:34.044Z,5.47
2022-12-20T15:12:19.536Z,4.70
2022-12-20T15:15:27.675Z,5.68
2022-12-20T15:18:16.469Z,6.07
2022-12-20T15:21:12.791Z,6.22
2022-12-20T15:24:02.254Z,5.73
2022-12-20T15:26:49.234Z,4.88
2022-12-20T15:29:35.800Z,4.57
2022-12-20T15:32:29.696Z,6.03
2022-12-20T15:35:16.454Z,6.53
2022-12-20T15:38:02.026Z,5.00
2022-12-20T15:40:49.827Z,5.38
2022-12-20T15:43:39.195Z,3.38
2022-12-20T15:46:25.042Z,4.43
2022-12-20T15:49:17.766Z,4.30
2022-12-20T15:52:03.673Z,5.47
2022-12-20T15:54:49.818Z,5.00
2022-12-20T15:57:35.583Z,5.45
2022-12-20T16:00:21.285Z,4.78
2022-12-20T16:03:15.615Z,4.35
2022-12-20T16:06:01.179Z,5.88
2022-12-20T16:08:46.842Z,2.90
2022-12-20T16:11:32.736Z,5.57
2022-12-20T16:14:23.651Z,4.80
2022-12-20T16:17:16.967Z,4.25
2022-12-20T16:20:02.661Z,4.68
2022-12-20T16:22:48.355Z,4.90
2022-12-20T16:25:36.784Z,6.15
2022-12-20T16:28:22.080Z,3.00
2022-12-20T16:31:32.055Z,3.25
2022-12-20T16:34:18.711Z,6.07
2022-12-20T16:37:04.986Z,4.22
2022-12-20T16:39:50.351Z,3.88
2022-12-20T16:42:35.705Z,7.70
2022-12-20T16:45:24.186Z,4.75
2022-12-20T16:48:09.715Z,4.85
2022-12-20T16:50:55.460Z,4.05
2022-12-20T16:54:09.791Z,4.05
2022-12-20T16:56:55.102Z,3.95
2022-12-20T16:59:40.676Z,4.25
2022-12-20T17:02:33.258Z,2.95
2022-12-20T17:05:28.878Z,3.80
2022-12-20T17:11:20.786Z,3.15
2022-12-20T17:14:12.381Z,3.05
2022-12-20T17:16:58.626Z,3.25
2022-12-20T17:19:44.740Z,4.85
2022-12-20T17:22:30.533Z,5.07
2022-12-20T17:25:26.059Z,4.00
2022-12-20T17:28:11.403Z,3.97
2022-12-20T17:31:01.026Z,3.88
2022-12-20T17:33:49.737Z,4.60
2022-12-20T17:36:38.007Z,3.78
2022-12-20T17:39:25.215Z,4.38
2022-12-20T17:42:14.383Z,4.60
2022-12-20T17:45:00.035Z,2.15
2022-12-20T17:47:45.828Z,3.60
2022-12-20T17:50:31.583Z,3.05
2022-12-20T17:53:16.942Z,2.95
2022-12-20T17:56:02.644Z,3.80
2022-12-20T17:58:48.664Z,3.08
2022-12-20T18:01:36.062Z,2.63
2022-12-20T18:04:21.968Z,3.45
2022-12-20T18:07:09.338Z,3.20
2022-12-20T18:09:55.111Z,4.07
2022-12-20T18:12:40.705Z,3.55
2022-12-20T18:15:26.103Z,4.93
2022-12-20T18:18:11.608Z,4.35
2022-12-20T18:21:05.474Z,3.00
2022-12-20T18:23:52.213Z,3.20
2022-12-20T18:26:38.041Z,2.97
2022-12-20T18:29:23.690Z,3.75
2022-12-20T18:32:10.078Z,2.55
2022-12-20T18:34:55.835Z,4.85
2022-12-20T18:37:41.439Z,3.72
2022-12-20T18:40:26.824Z,2.88
2022-12-20T18:43:12.278Z,3.13
2022-12-20T18:46:04.429Z,3.85
2022-12-20T18:48:54.633Z,5.88
2022-12-20T18:51:40.425Z,2.67
2022-12-20T18:54:26.254Z,3.70
2022-12-20T18:57:12.048Z,3.40
2022-12-20T18:59:57.501Z,2.58
2022-12-20T19:02:43.760Z,2.97
2022-12-20T19:05:33.293Z,4.18
2022-12-20T19:08:19.420Z,2.40
2022-12-20T19:11:08.881Z,3.30
2022-12-20T19:13:55.047Z,3.88
2022-12-20T19:16:41.279Z,1.70
2022-12-20T19:19:26.653Z,2.97
2022-12-20T19:22:12.187Z,3.22
2022-12-20T19:24:58.025Z,2.75
2022-12-20T19:27:43.603Z,4.70
2022-12-20T19:30:30.145Z,2.47
2022-12-20T19:33:16.001Z,6.47
2022-12-20T19:36:15.023Z,4.50
2022-12-20T19:39:02.011Z,3.70
2022-12-20T19:42:19.048Z,3.25
2022-12-20T19:44:54.265Z,3.92
2022-12-20T19:47:40.529Z,4.23
2022-12-20T19:50:26.043Z,5.63
2022-12-20T19:53:11.622Z,3.42
2022-12-20T19:55:57.084Z,4.38
2022-12-20T19:58:43.633Z,4.43
2022-12-20T20:01:29.643Z,4.38
2022-12-20T20:04:15.379Z,4.35
2022-12-20T20:07:02.443Z,5.20
2022-12-20T20:09:48.139Z,4.75
2022-12-20T20:12:34.113Z,4.50
2022-12-20T20:15:19.544Z,4.22
2022-12-20T20:18:05.122Z,4.07
2022-12-20T20:20:50.762Z,5.32
2022-12-20T20:23:37.267Z,4.60
2022-12-20T20:26:26.423Z,5.03
2022-12-20T20:29:11.896Z,5.00
2022-12-20T20:31:57.573Z,3.53
2022-12-20T20:34:44.082Z,4.85
2022-12-20T20:37:29.559Z,4.20
2022-12-20T20:40:15.541Z,4.93
2022-12-20T20:43:02.278Z,6.20
2022-12-20T20:45:48.573Z,5.38
2022-12-20T20:48:35.318Z,5.13
2022-12-20T20:51:20.649Z,5.97
2022-12-20T20:54:06.150Z,4.95
2022-12-20T20:56:51.602Z,4.67
2022-12-20T20:59:37.173Z,5.90
2022-12-20T21:02:24.480Z,4.10
2022-12-20T21:06:00.130Z,5.30
2022-12-20T21:08:15.963Z,5.40
2022-12-20T21:11:07.929Z,5.85
2022-12-20T21:13:53.916Z,5.17
2022-12-20T21:16:42.808Z,4.93
2022-12-20T21:19:28.202Z,4.75
2022-12-20T21:22:13.737Z,4.60
2022-12-20T21:25:00.394Z,5.80
2022-12-20T21:27:46.122Z,5.22
2022-12-20T21:30:31.840Z,4.97
2022-12-20T21:33:17.427Z,4.22
2022-12-20T21:36:06.436Z,5.35
2022-12-20T21:38:54.336Z,5.10
2022-12-20T21:41:39.972Z,5.55
2022-12-20T21:44:25.484Z,5.40
2022-12-20T21:47:11.341Z,5.80
2022-12-20T21:49:57.444Z,6.47
2022-12-20T21:52:42.922Z,6.13
2022-12-20T21:55:28.379Z,6.60
2022-12-20T21:58:13.851Z,4.68
2022-12-20T22:00:59.691Z,5.15
2022-12-20T22:03:45.648Z,4.45
2022-12-20T22:06:32.494Z,4.25
2022-12-20T22:09:17.846Z,4.75
2022-12-20T22:12:03.388Z,4.45
2022-12-20T22:14:48.937Z,4.43
2022-12-20T22:17:34.424Z,4.60
2022-12-20T22:20:20.003Z,4.37
2022-12-20T22:23:05.528Z,4.50
2022-12-20T22:25:50.901Z,4.57
2022-12-20T22:28:37.689Z,5.20
2022-12-20T22:31:24.538Z,4.35
2022-12-20T22:34:10.331Z,3.78
2022-12-20T22:36:56.214Z,3.90
2022-12-20T22:39:41.860Z,4.40
2022-12-20T22:42:27.740Z,3.80
2022-12-20T22:45:13.829Z,4.10
2022-12-20T22:47:59.116Z,2.97
2022-12-20T22:50:44.619Z,3.45
2022-12-20T22:53:31.758Z,4.32
2022-12-20T22:56:19.594Z,3.28
2022-12-20T22:59:06.361Z,3.88
2022-12-20T23:01:52.021Z,3.10
2022-12-20T23:04:37.597Z,3.20
2022-12-20T23:07:23.224Z,3.10
2022-12-20T23:10:29.433Z,3.30
2022-12-20T23:13:33.871Z,4.57
2022-12-20T23:16:19.891Z,3.50
2022-12-20T23:19:05.665Z,2.88
2022-12-20T23:22:09.736Z,2.77
2022-12-20T23:24:55.239Z,4.20
2022-12-20T23:27:42.562Z,3.55
2022-12-20T23:30:27.878Z,4.60
2022-12-20T23:33:13.414Z,3.55
2022-12-20T23:36:03.521Z,3.92
2022-12-20T23:38:49.269Z,4.00
2022-12-20T23:41:35.458Z,3.53
2022-12-20T23:44:21.271Z,3.80
2022-12-20T23:47:06.698Z,3.03
2022-12-20T23:49:52.327Z,3.67
2022-12-20T23:52:37.706Z,3.25
2022-12-20T23:55:23.188Z,3.63
2022-12-20T23:58:08.698Z,4.63
